CheckWX is a tool to help pilots better visualize weather data.  It is not intended as a substitute for an official pre-flight weather briefing.

17:29:48 UTC

KJXI METAR
Fox Stephens Field - Gilmer Municipal Airport
Gilmer, Texas, USA
Current

35 mins ago

KJXI 201655Z AUTO 02009G17KT 10SM OVC014 05/03 A3048 RMK AO2 T00500025
Observed
Feb-20 @ 16:55 UTC
Wind
  • 020° at 9 KTS
  • Gusting to 17 KTS
Visibility
10 SM
Flight Rules
MVFR
Cloud Levels
  • Overcast at 1,400' AGL
Temperature
C / 41°F
Dewpoint
C / 37°F
Humidity
87%
Altimeter
30.48" Hg
Pressure
1032.22 hPa
Previous

55 mins ago

KJXI 201635Z AUTO 01008G17KT 10SM BKN014 OVC055 05/03 A3047 RMK AO2 T00470027
Observed
Feb-20 @ 16:35 UTC
Wind
  • 010° at 8 KTS
  • Gusting to 17 KTS
Visibility
10 SM
Flight Rules
MVFR
Cloud Levels
  • Broken at 1,400' AGL
  • Overcast at 5,500' AGL
Temperature
C / 41°F
Dewpoint
C / 37°F
Humidity
87%
Altimeter
30.47" Hg
Pressure
1031.82 hPa
Previous

1 hour ago

KJXI 201615Z AUTO 02008KT 10SM OVC014 05/03 A3047 RMK AO2 T00450032
Observed
Feb-20 @ 16:15 UTC
Wind
  • 020° at 8 KTS
Visibility
10 SM
Flight Rules
MVFR
Cloud Levels
  • Overcast at 1,400' AGL
Temperature
C / 41°F
Dewpoint
C / 37°F
Humidity
87%
Altimeter
30.47" Hg
Pressure
1031.82 hPa